createdAt,value
2017-07-08T12:48:20.724Z,43.20
2017-07-08T12:50:47.331Z,44.60
2017-07-08T12:53:13.951Z,46.40
2017-07-08T12:55:41.372Z,50.00
2017-07-08T12:58:08.055Z,49.90
2017-07-08T13:00:34.718Z,47.40
2017-07-08T13:03:01.407Z,48.80
2017-07-08T13:05:28.011Z,50.10
2017-07-08T13:07:54.624Z,52.60
2017-07-08T13:10:21.255Z,52.30
2017-07-08T13:12:48.447Z,51.30
2017-07-08T13:15:15.052Z,49.30
2017-07-08T13:17:41.783Z,49.50
2017-07-08T13:20:08.427Z,52.10
2017-07-08T13:22:35.131Z,55.10
2017-07-08T13:25:02.653Z,53.70
2017-07-08T13:27:29.245Z,53.40
2017-07-08T13:29:56.617Z,50.10
2017-07-08T13:32:23.209Z,50.10
2017-07-08T13:34:49.873Z,49.40
2017-07-08T13:37:16.550Z,49.50
2017-07-08T13:39:43.158Z,49.90
2017-07-08T13:42:09.838Z,53.70
2017-07-08T13:44:36.467Z,51.00
2017-07-08T13:47:03.097Z,49.50
2017-07-08T13:49:29.710Z,49.80
2017-07-08T13:51:56.342Z,49.40
2017-07-08T13:54:22.961Z,49.20
2017-07-08T13:56:50.325Z,50.90
2017-07-08T13:59:17.674Z,51.80
2017-07-08T14:01:44.322Z,51.70
2017-07-08T14:04:11.672Z,51.30
2017-07-08T14:06:39.140Z,50.10
2017-07-08T14:09:05.729Z,50.10
2017-07-08T14:11:32.345Z,52.70
2017-07-08T14:13:58.951Z,49.20
2017-07-08T14:16:25.592Z,51.70
2017-07-08T14:18:52.218Z,48.20
2017-07-08T14:21:19.633Z,50.10
2017-07-08T14:23:46.247Z,50.30
2017-07-08T14:26:12.861Z,51.20
2017-07-08T14:28:39.477Z,48.10
2017-07-08T14:31:06.100Z,48.70
2017-07-08T14:33:32.696Z,48.20
2017-07-08T14:35:59.322Z,48.70
2017-07-08T14:38:26.047Z,47.40
2017-07-08T14:40:52.708Z,48.10
2017-07-08T14:43:19.296Z,49.00
2017-07-08T14:45:46.690Z,50.00
2017-07-08T14:48:13.269Z,49.20
2017-07-08T14:50:39.883Z,50.20
2017-07-08T14:53:06.552Z,52.60
2017-07-08T14:55:33.171Z,50.00
2017-07-08T14:57:59.781Z,59.80
2017-07-08T15:00:26.494Z,72.00
2017-07-08T15:02:53.186Z,80.80
2017-07-08T15:05:19.913Z,81.90
2017-07-08T15:07:46.870Z,83.40
2017-07-08T15:10:13.514Z,90.30
2017-07-08T15:12:40.135Z,91.80
2017-07-08T15:15:06.802Z,90.50
2017-07-08T15:17:33.404Z,92.00
2017-07-08T15:20:00.205Z,92.10
2017-07-08T15:22:27.556Z,94.50
2017-07-08T15:24:54.964Z,93.40
2017-07-08T15:27:21.595Z,93.10
2017-07-08T15:29:48.244Z,93.60
2017-07-08T15:32:14.894Z,93.20
2017-07-08T15:34:41.549Z,90.60
2017-07-08T15:37:08.175Z,91.70
2017-07-08T15:39:34.853Z,90.90
2017-07-08T15:42:01.576Z,89.30
2017-07-08T15:44:29.061Z,89.70
2017-07-08T15:46:55.673Z,89.70
2017-07-08T15:49:22.397Z,90.80
2017-07-08T15:51:49.091Z,90.50
2017-07-08T15:54:15.909Z,90.40
2017-07-08T15:56:42.545Z,90.50
2017-07-08T15:59:09.937Z,91.10
2017-07-08T16:01:36.702Z,91.00
2017-07-08T16:04:03.331Z,91.40
2017-07-08T16:06:30.376Z,90.40
2017-07-08T16:08:57.061Z,91.00
2017-07-08T16:11:24.531Z,90.60
2017-07-08T16:13:51.196Z,90.30
2017-07-08T16:16:17.916Z,90.80
2017-07-08T16:18:44.546Z,89.70
2017-07-08T16:21:11.201Z,88.40
2017-07-08T16:23:37.901Z,90.00
2017-07-08T16:26:04.494Z,90.00
2017-07-08T16:28:31.138Z,90.10
2017-07-08T16:30:57.735Z,90.60
2017-07-08T16:33:24.348Z,86.70
2017-07-08T16:35:50.952Z,90.40
2017-07-08T16:38:17.586Z,89.20
2017-07-08T16:40:44.227Z,90.30
2017-07-08T16:43:10.847Z,87.90
2017-07-08T16:45:37.536Z,90.50
2017-07-08T16:48:04.229Z,90.70
2017-07-08T16:50:30.844Z,87.30
2017-07-08T16:52:57.527Z,79.70
2017-07-08T16:55:24.134Z,87.70
2017-07-08T16:57:50.780Z,83.40
2017-07-08T17:00:17.372Z,79.10
2017-07-08T17:02:44.001Z,78.60
2017-07-08T17:05:11.374Z,82.60
2017-07-08T17:07:38.247Z,81.60
2017-07-08T17:10:04.885Z,81.10
2017-07-08T17:12:31.492Z,82.90
2017-07-08T17:14:58.212Z,84.60
2017-07-08T17:17:25.580Z,84.20
2017-07-08T17:19:52.255Z,83.40
2017-07-08T17:22:19.016Z,79.80
2017-07-08T17:24:45.809Z,81.60
2017-07-08T17:27:12.430Z,86.50
2017-07-08T17:29:39.820Z,85.40
2017-07-08T17:32:06.450Z,84.60
2017-07-08T17:34:33.101Z,80.70
2017-07-08T17:36:59.761Z,83.60
2017-07-08T17:39:26.391Z,79.40
2017-07-08T17:41:53.033Z,81.80
2017-07-08T17:44:19.666Z,77.40
2017-07-08T17:46:46.285Z,83.00
2017-07-08T17:49:13.022Z,83.90
2017-07-08T17:51:39.686Z,82.30
2017-07-08T17:54:06.331Z,82.90
2017-07-08T17:56:32.970Z,83.00
2017-07-08T17:58:59.651Z,81.90
2017-07-08T18:01:26.347Z,81.60
2017-07-08T18:03:53.646Z,81.00
2017-07-08T18:06:20.285Z,81.40
2017-07-08T18:08:46.904Z,81.20
2017-07-08T18:11:13.581Z,83.00
2017-07-08T18:13:40.290Z,83.70
2017-07-08T18:16:07.668Z,82.20
2017-07-08T18:18:34.376Z,82.20
2017-07-08T18:21:01.756Z,84.30
2017-07-08T18:23:29.106Z,84.50
2017-07-08T18:25:56.494Z,81.60
2017-07-08T18:28:23.173Z,81.50
2017-07-08T18:30:49.846Z,79.40
2017-07-08T18:33:17.233Z,82.00
2017-07-08T18:35:43.881Z,82.00
2017-07-08T18:38:10.539Z,82.60
2017-07-08T18:40:37.217Z,82.80
2017-07-08T18:43:03.923Z,84.60
2017-07-08T18:45:30.583Z,83.20
2017-07-08T18:47:58.227Z,84.50
2017-07-08T18:50:24.904Z,84.30
2017-07-08T18:52:51.598Z,84.40
2017-07-08T18:55:18.286Z,84.10
2017-07-08T18:57:44.990Z,84.60
2017-07-08T19:00:11.797Z,84.70
2017-07-08T19:02:38.550Z,85.50
2017-07-08T19:05:05.205Z,84.50
2017-07-08T19:07:31.882Z,83.80
2017-07-08T19:09:58.563Z,83.60
2017-07-08T19:12:25.209Z,84.40
2017-07-08T19:14:52.057Z,83.20
2017-07-08T19:17:18.693Z,82.80
2017-07-08T19:19:45.324Z,82.70
2017-07-08T19:22:11.953Z,83.10
2017-07-08T19:24:38.629Z,83.70
2017-07-08T19:27:06.022Z,80.80
2017-07-08T19:29:32.727Z,80.70
2017-07-08T19:32:00.134Z,80.20
2017-07-08T19:34:27.086Z,80.20
2017-07-08T19:36:53.828Z,80.40
2017-07-08T19:39:20.477Z,80.40
2017-07-08T19:41:54.053Z,80.40
2017-07-08T19:44:20.669Z,79.20
2017-07-08T19:46:47.301Z,80.00
2017-07-08T19:49:13.894Z,79.10
2017-07-08T19:51:40.533Z,79.70
2017-07-08T19:54:07.392Z,80.00
2017-07-08T19:56:34.856Z,80.90
2017-07-08T19:59:02.221Z,82.00
2017-07-08T20:01:28.859Z,82.00
2017-07-08T20:03:55.684Z,81.10
2017-07-08T20:06:23.096Z,82.80
2017-07-08T20:08:49.738Z,82.10
2017-07-08T20:11:16.420Z,82.30
2017-07-08T20:13:43.779Z,82.80
2017-07-08T20:16:11.188Z,81.30
2017-07-08T20:18:37.827Z,81.30
2017-07-08T20:21:04.477Z,82.40
2017-07-08T20:23:31.188Z,81.70
2017-07-08T20:25:57.821Z,81.70
2017-07-08T20:28:24.462Z,81.60
2017-07-08T20:30:51.239Z,80.90
2017-07-08T20:33:17.834Z,80.80
2017-07-08T20:35:44.476Z,81.50
2017-07-08T20:38:11.101Z,80.20
2017-07-08T20:40:37.754Z,80.20
2017-07-08T20:43:04.605Z,80.80
2017-07-08T20:45:31.271Z,82.10
2017-07-08T20:47:57.880Z,80.80
2017-07-08T20:50:24.848Z,81.30
2017-07-08T20:52:51.671Z,81.20
2017-07-08T20:55:18.283Z,80.80
2017-07-08T20:57:44.941Z,79.80
2017-07-08T21:00:11.590Z,81.00
2017-07-08T21:02:38.527Z,80.00
2017-07-08T21:05:05.307Z,80.10
2017-07-08T21:07:31.936Z,79.60
2017-07-08T21:09:58.590Z,80.40
2017-07-08T21:12:26.036Z,79.80
2017-07-08T21:14:53.054Z,79.80
2017-07-08T21:17:19.682Z,79.30
2017-07-08T21:19:46.379Z,79.60
2017-07-08T21:22:13.809Z,81.10
2017-07-08T21:24:40.416Z,80.90
2017-07-08T21:27:07.378Z,80.20
2017-07-08T21:29:34.013Z,79.30
2017-07-08T21:32:00.629Z,79.80
2017-07-08T21:34:34.451Z,80.30
2017-07-08T21:37:01.109Z,80.50
2017-07-08T21:39:28.144Z,81.10
2017-07-08T21:41:54.746Z,81.10
2017-07-08T21:44:21.365Z,80.70
2017-07-08T21:46:48.127Z,81.00
2017-07-08T21:49:14.762Z,81.70
2017-07-08T21:51:41.852Z,84.00
2017-07-08T21:54:08.492Z,83.10
2017-07-08T21:56:35.143Z,82.50
2017-07-08T21:59:01.894Z,82.70
2017-07-08T22:01:28.540Z,83.00
2017-07-08T22:03:56.269Z,84.20
2017-07-08T22:06:22.881Z,84.00
2017-07-08T22:08:49.600Z,83.00
2017-07-08T22:11:16.216Z,83.30
2017-07-08T22:13:43.620Z,84.30
2017-07-08T22:16:10.300Z,84.30
2017-07-08T22:18:36.947Z,84.50
2017-07-08T22:21:03.524Z,84.50
2017-07-08T22:23:30.491Z,84.70
2017-07-08T22:25:57.199Z,85.90
2017-07-08T22:28:23.852Z,86.20
2017-07-08T22:30:50.913Z,86.40
2017-07-08T22:33:17.553Z,86.60
2017-07-08T22:35:44.165Z,86.30
2017-07-08T22:38:10.821Z,86.90
2017-07-08T22:40:37.411Z,86.70
2017-07-08T22:43:05.229Z,86.70
2017-07-08T22:45:31.852Z,86.70
2017-07-08T22:47:58.480Z,87.30
2017-07-08T22:50:25.281Z,87.80
2017-07-08T22:52:51.887Z,86.70
2017-07-08T22:55:18.937Z,87.20
2017-07-08T22:57:45.531Z,87.50
2017-07-08T23:00:12.145Z,87.00
2017-07-08T23:02:39.590Z,86.90
2017-07-08T23:05:06.215Z,86.90
2017-07-08T23:07:33.344Z,87.40
2017-07-08T23:09:59.975Z,87.60
2017-07-08T23:12:26.581Z,87.60
2017-07-08T23:14:53.233Z,87.30
2017-07-08T23:17:19.855Z,87.30
2017-07-08T23:19:46.837Z,86.80
2017-07-08T23:22:13.463Z,87.40
2017-07-08T23:24:40.376Z,86.80
2017-07-08T23:27:07.749Z,86.20
2017-07-08T23:29:34.394Z,86.30
2017-07-08T23:32:01.369Z,86.50
2017-07-08T23:34:28.106Z,87.00
2017-07-08T23:36:54.731Z,87.20
2017-07-08T23:39:21.383Z,86.70
2017-07-08T23:41:48.193Z,87.50
2017-07-08T23:44:15.147Z,87.40
2017-07-08T23:46:41.761Z,87.40
2017-07-08T23:49:08.392Z,87.40
2017-07-08T23:51:35.791Z,87.80
2017-07-08T23:54:02.411Z,87.80
2017-07-08T23:56:29.375Z,87.80
2017-07-08T23:58:56.214Z,87.60
